Terminal Aerodrome Forecast
Issued by NWS

Home | Current Version | Previous Version | Text Only | Print | Product List | Glossary On
Versions: 1 2 3 4 5 6 7 8 9 10 11 12 13
000
FTUS45 KSLC 231728
TAFBCE
TAF
KBCE 231728Z 2318/2418 16012KT P6SM BKN200
     FM232000 22021G31KT P6SM BKN200
     FM240300 25009KT P6SM BKN200
     FM241200 29008KT P6SM SCT150=

USA.gov is the U.S. government's official web portal to all federal, state and local government web resources and services.